createdAt,value
2022-12-24T00:02:21.545Z,10.19
2022-12-24T00:04:47.932Z,10.14
2022-12-24T00:07:14.379Z,10.18
2022-12-24T00:09:40.724Z,10.21
2022-12-24T00:12:07.318Z,10.20
2022-12-24T00:14:33.680Z,10.21
2022-12-24T00:17:00.087Z,10.19
2022-12-24T00:19:26.541Z,10.12
2022-12-24T00:21:52.859Z,10.12
2022-12-24T00:24:19.212Z,10.14
2022-12-24T00:26:45.562Z,10.21
2022-12-24T00:29:12.138Z,10.15
2022-12-24T00:31:38.460Z,10.21
2022-12-24T00:34:04.823Z,10.21
2022-12-24T00:36:31.248Z,10.26
2022-12-24T00:38:57.603Z,10.30
2022-12-24T00:41:28.890Z,10.31
2022-12-24T00:44:05.537Z,10.31
2022-12-24T00:46:33.459Z,10.27
2022-12-24T00:49:00.699Z,10.23
2022-12-24T00:51:27.649Z,10.24
2022-12-24T00:53:54.270Z,10.22
2022-12-24T00:56:20.967Z,10.21
2022-12-24T00:58:47.426Z,10.20
2022-12-24T01:01:14.262Z,10.18
2022-12-24T01:03:40.882Z,10.22
2022-12-24T01:06:13.530Z,10.16
2022-12-24T01:08:40.492Z,10.11
2022-12-24T01:11:09.039Z,10.13
2022-12-24T01:13:36.165Z,10.13
2022-12-24T01:16:03.802Z,10.09
2022-12-24T01:18:30.211Z,10.12
2022-12-24T01:20:58.255Z,10.14
2022-12-24T01:23:25.037Z,10.13
2022-12-24T01:25:51.482Z,10.11
2022-12-24T01:28:18.354Z,10.09
2022-12-24T01:30:44.772Z,10.05
2022-12-24T01:33:11.148Z,10.02
2022-12-24T01:35:42.687Z,10.02
2022-12-24T01:38:11.723Z,10.04
2022-12-24T01:41:00.480Z,9.97
2022-12-24T01:43:30.327Z,9.99
2022-12-24T01:46:01.264Z,9.97
2022-12-24T01:48:45.195Z,9.96
2022-12-24T01:51:35.675Z,9.94
2022-12-24T01:54:11.501Z,9.92
2022-12-24T01:56:45.196Z,9.90
2022-12-24T01:59:14.598Z,9.91
2022-12-24T02:01:41.161Z,9.85
2022-12-24T02:04:34.297Z,9.85
2022-12-24T02:07:00.967Z,9.86
2022-12-24T02:09:28.211Z,9.86
2022-12-24T02:11:54.644Z,9.84
2022-12-24T02:14:21.625Z,9.81
2022-12-24T02:17:02.572Z,9.83
2022-12-24T02:19:34.664Z,9.77
2022-12-24T02:22:08.061Z,9.74
2022-12-24T02:24:46.740Z,9.67
2022-12-24T02:27:28.064Z,9.63
2022-12-24T02:30:01.712Z,9.57
2022-12-24T02:32:31.073Z,9.57
2022-12-24T02:35:19.942Z,9.53
2022-12-24T02:37:55.092Z,9.57
2022-12-24T02:40:25.213Z,9.50
2022-12-24T02:42:58.293Z,9.44
2022-12-24T02:45:31.117Z,9.49
2022-12-24T02:47:58.797Z,9.52
2022-12-24T02:50:25.850Z,9.52
2022-12-24T02:52:52.747Z,9.50
2022-12-24T02:55:28.425Z,9.47
2022-12-24T02:58:09.973Z,9.44
2022-12-24T03:00:56.163Z,9.46
2022-12-24T03:03:49.674Z,9.49
2022-12-24T03:06:28.118Z,9.54
2022-12-24T03:09:01.887Z,9.54
2022-12-24T03:11:28.281Z,9.50
2022-12-24T03:13:57.549Z,9.53
2022-12-24T03:16:27.267Z,9.53
2022-12-24T03:18:55.988Z,9.53
2022-12-24T03:21:28.437Z,9.53
2022-12-24T03:23:56.026Z,9.53
2022-12-24T03:26:24.806Z,9.52
2022-12-24T03:28:51.170Z,9.53
2022-12-24T03:31:18.625Z,9.57
2022-12-24T03:33:45.415Z,9.62
2022-12-24T03:36:12.122Z,9.59
2022-12-24T03:38:38.491Z,9.62
2022-12-24T03:41:05.157Z,9.63
2022-12-24T03:43:31.674Z,9.62
2022-12-24T03:45:58.150Z,9.60
2022-12-24T03:48:29.126Z,9.64
2022-12-24T03:50:58.987Z,9.55
2022-12-24T03:53:25.351Z,9.60
2022-12-24T03:55:51.672Z,9.56
2022-12-24T03:58:18.023Z,9.57
2022-12-24T04:00:44.400Z,9.64
2022-12-24T04:03:10.848Z,9.65
2022-12-24T04:05:37.258Z,9.66
2022-12-24T04:08:03.626Z,9.72
2022-12-24T04:10:29.941Z,9.67
2022-12-24T04:12:56.282Z,9.65
2022-12-24T04:15:22.619Z,9.64
2022-12-24T04:17:48.953Z,9.61
2022-12-24T04:20:15.353Z,9.65
2022-12-24T04:22:42.155Z,9.66
2022-12-24T04:25:09.069Z,9.69
2022-12-24T04:27:35.488Z,9.64
2022-12-24T04:30:01.929Z,9.70
2022-12-24T04:32:28.553Z,9.67
2022-12-24T04:34:55.037Z,9.68
2022-12-24T04:37:21.409Z,9.75
2022-12-24T04:39:47.784Z,9.78
2022-12-24T04:42:14.279Z,9.77
2022-12-24T04:44:40.608Z,9.76
2022-12-24T04:47:06.963Z,9.75
2022-12-24T04:49:33.274Z,9.77
2022-12-24T04:51:59.618Z,9.80
2022-12-24T04:54:25.993Z,9.75
2022-12-24T04:56:52.696Z,9.73
2022-12-24T04:59:19.046Z,9.67
2022-12-24T05:01:45.610Z,9.65
2022-12-24T05:04:12.143Z,9.63
2022-12-24T05:06:38.508Z,9.52
2022-12-24T05:09:04.858Z,9.49
2022-12-24T05:11:31.498Z,9.50
2022-12-24T05:13:57.908Z,9.48
2022-12-24T05:16:24.708Z,9.49
2022-12-24T05:18:51.553Z,9.51
2022-12-24T05:21:21.619Z,9.53
2022-12-24T05:24:24.033Z,9.56
2022-12-24T05:26:56.045Z,9.52
2022-12-24T05:29:23.056Z,9.58
2022-12-24T05:31:49.625Z,9.67
2022-12-24T05:34:16.735Z,9.66
2022-12-24T05:36:44.099Z,9.67
2022-12-24T05:39:16.190Z,9.68
2022-12-24T05:41:43.229Z,9.68
2022-12-24T05:44:09.631Z,9.66
2022-12-24T05:46:36.025Z,9.66
2022-12-24T05:49:02.535Z,9.66
2022-12-24T05:51:28.895Z,9.70
2022-12-24T05:53:55.327Z,9.64
2022-12-24T05:56:23.687Z,9.66
2022-12-24T05:58:51.966Z,9.69
2022-12-24T06:01:19.766Z,9.71
2022-12-24T06:03:46.329Z,9.70
2022-12-24T06:06:15.668Z,9.74
2022-12-24T06:08:42.196Z,9.75
2022-12-24T06:11:11.854Z,9.72
2022-12-24T06:13:39.267Z,9.70
2022-12-24T06:16:07.254Z,9.80
2022-12-24T06:18:35.902Z,9.77
2022-12-24T06:21:02.949Z,9.76
2022-12-24T06:23:31.364Z,9.73
2022-12-24T06:26:00.712Z,9.75
2022-12-24T06:28:28.491Z,9.79
2022-12-24T06:31:02.133Z,9.80
2022-12-24T06:33:29.485Z,9.77
2022-12-24T06:35:55.847Z,9.77
2022-12-24T06:38:22.211Z,9.80
2022-12-24T06:40:48.751Z,9.85
2022-12-24T06:43:16.073Z,9.87
2022-12-24T06:45:47.084Z,9.85
2022-12-24T06:48:14.776Z,9.88
2022-12-24T06:50:42.334Z,9.89
2022-12-24T06:53:09.535Z,9.93
2022-12-24T06:55:36.003Z,9.95
2022-12-24T06:58:03.141Z,9.99
2022-12-24T07:00:29.524Z,9.93
2022-12-24T07:02:55.943Z,9.91
2022-12-24T07:05:22.389Z,9.91
2022-12-24T07:07:48.727Z,9.90
2022-12-24T07:10:17.031Z,9.95
2022-12-24T07:12:43.983Z,9.95
2022-12-24T07:15:11.213Z,9.96
2022-12-24T07:17:37.681Z,9.98
2022-12-24T07:20:05.627Z,9.95
2022-12-24T07:22:32.023Z,9.92
2022-12-24T07:24:58.340Z,9.97
2022-12-24T07:27:24.728Z,9.99
2022-12-24T07:29:51.063Z,10.02
2022-12-24T07:32:17.511Z,9.97
2022-12-24T07:34:43.909Z,9.96
2022-12-24T07:37:10.280Z,9.97
2022-12-24T07:39:36.615Z,9.92
2022-12-24T07:42:05.472Z,9.89
2022-12-24T07:44:31.832Z,9.90
2022-12-24T07:46:58.279Z,9.88
2022-12-24T07:49:24.799Z,9.86
2022-12-24T07:51:51.180Z,9.89
2022-12-24T07:54:17.532Z,9.87
2022-12-24T07:56:43.899Z,9.87
2022-12-24T07:59:14.033Z,9.88
2022-12-24T08:01:41.111Z,9.91
2022-12-24T08:04:07.662Z,9.88
2022-12-24T08:06:34.113Z,9.91
2022-12-24T08:09:00.521Z,9.86
2022-12-24T08:11:26.873Z,9.85
2022-12-24T08:13:53.226Z,9.91
2022-12-24T08:16:19.623Z,9.88
2022-12-24T08:18:45.997Z,9.90
2022-12-24T08:21:12.344Z,9.94
2022-12-24T08:23:38.873Z,9.93
2022-12-24T08:26:09.892Z,9.91
2022-12-24T08:28:36.752Z,9.89
2022-12-24T08:31:03.242Z,9.84
2022-12-24T08:33:29.772Z,9.84
2022-12-24T08:35:57.155Z,9.88
2022-12-24T08:38:24.174Z,9.86
2022-12-24T08:40:53.434Z,9.89
2022-12-24T08:43:19.991Z,9.87
2022-12-24T08:45:49.109Z,9.86
2022-12-24T08:48:15.624Z,9.85
2022-12-24T08:50:42.864Z,9.80
2022-12-24T08:53:10.632Z,9.87
2022-12-24T08:55:37.382Z,9.92
2022-12-24T08:58:04.017Z,9.90
2022-12-24T09:00:30.415Z,9.95
2022-12-24T09:02:57.575Z,9.85
2022-12-24T09:05:24.007Z,9.89
2022-12-24T09:07:50.379Z,9.87
2022-12-24T09:10:17.088Z,9.84
2022-12-24T09:12:43.456Z,9.88
2022-12-24T09:15:10.291Z,9.84
2022-12-24T09:17:37.054Z,9.87
2022-12-24T09:20:06.629Z,9.89
2022-12-24T09:22:37.879Z,9.91
2022-12-24T09:25:06.155Z,9.92
2022-12-24T09:27:32.572Z,9.96
2022-12-24T09:29:58.920Z,10.01
2022-12-24T09:32:25.284Z,10.02
2022-12-24T09:34:51.621Z,10.07
2022-12-24T09:37:18.052Z,10.09
2022-12-24T09:39:44.414Z,10.13
2022-12-24T09:42:49.942Z,10.21
2022-12-24T09:45:41.703Z,10.21
2022-12-24T09:48:18.184Z,10.26
2022-12-24T09:50:53.134Z,10.27
2022-12-24T09:53:27.034Z,10.20
2022-12-24T09:56:04.034Z,10.17
2022-12-24T09:58:41.908Z,10.18
2022-12-24T10:01:12.570Z,10.13
2022-12-24T10:03:39.288Z,10.08
2022-12-24T10:06:25.005Z,10.09
2022-12-24T10:09:13.904Z,10.11
2022-12-24T10:11:50.269Z,10.12
2022-12-24T10:14:44.252Z,10.09
2022-12-24T10:17:45.431Z,10.16
2022-12-24T10:20:34.705Z,10.23
2022-12-24T10:23:11.906Z,10.32
2022-12-24T10:25:47.826Z,10.34
2022-12-24T10:28:23.745Z,10.42
2022-12-24T10:30:55.222Z,10.38
2022-12-24T10:33:46.827Z,10.39
2022-12-24T10:36:18.645Z,10.42
2022-12-24T10:38:45.955Z,10.47
2022-12-24T10:41:14.487Z,10.43
2022-12-24T10:43:42.948Z,10.51
2022-12-24T10:46:23.086Z,10.62
2022-12-24T10:48:59.480Z,10.71
2022-12-24T10:51:40.549Z,10.77
2022-12-24T10:54:14.290Z,10.85
2022-12-24T10:56:44.585Z,10.92
2022-12-24T10:59:32.025Z,10.80
2022-12-24T11:02:00.185Z,10.72
2022-12-24T11:04:32.396Z,10.60
2022-12-24T11:07:01.861Z,10.64
2022-12-24T11:09:34.570Z,10.67
2022-12-24T11:12:09.362Z,10.55
2022-12-24T11:14:39.932Z,10.57
2022-12-24T11:17:06.727Z,10.52
2022-12-24T11:19:41.242Z,10.50
2022-12-24T11:22:18.882Z,10.48
2022-12-24T11:24:50.019Z,10.49
2022-12-24T11:27:25.517Z,10.58
2022-12-24T11:29:51.891Z,10.57
2022-12-24T11:32:22.755Z,10.54
2022-12-24T11:34:49.682Z,10.58
2022-12-24T11:37:25.149Z,10.60
2022-12-24T11:39:54.460Z,10.61
2022-12-24T11:42:39.075Z,10.61
2022-12-24T11:45:17.305Z,10.54
2022-12-24T11:47:43.737Z,10.56
2022-12-24T11:50:27.247Z,10.48
2022-12-24T11:53:02.705Z,10.41
2022-12-24T11:55:52.804Z,10.42
2022-12-24T11:58:40.425Z,10.42
2022-12-24T12:01:24.596Z,10.49
2022-12-24T12:04:15.553Z,10.54
2022-12-24T12:06:47.785Z,10.54
2022-12-24T12:09:24.516Z,10.53
2022-12-24T12:11:56.797Z,10.53
2022-12-24T12:14:32.026Z,10.56
2022-12-24T12:17:07.565Z,10.54
2022-12-24T12:19:45.313Z,10.59
2022-12-24T12:22:24.320Z,10.59
2022-12-24T12:24:53.403Z,10.58
2022-12-24T12:27:47.771Z,10.52
2022-12-24T12:30:21.013Z,10.52
2022-12-24T12:32:56.894Z,10.52
2022-12-24T12:35:33.831Z,10.50
2022-12-24T12:38:12.145Z,10.53
2022-12-24T12:41:00.207Z,10.53
2022-12-24T12:43:32.611Z,10.50
2022-12-24T12:46:17.166Z,10.51
2022-12-24T12:48:58.600Z,10.50
2022-12-24T12:51:40.893Z,10.60
2022-12-24T12:54:30.644Z,10.59
2022-12-24T12:57:05.836Z,10.69
2022-12-24T12:59:43.231Z,10.68
2022-12-24T13:02:34.506Z,10.69
2022-12-24T13:05:23.584Z,10.73
2022-12-24T13:08:11.529Z,10.81
2022-12-24T13:10:54.010Z,10.76
2022-12-24T13:13:44.564Z,10.81
2022-12-24T13:16:35.733Z,10.81
2022-12-24T13:19:47.190Z,10.81
2022-12-24T13:22:17.463Z,10.79
2022-12-24T13:24:52.878Z,10.73
2022-12-24T13:27:24.827Z,10.68
2022-12-24T13:29:52.256Z,10.67
2022-12-24T13:32:21.428Z,10.71
2022-12-24T13:34:53.360Z,10.68
2022-12-24T13:37:32.164Z,10.71
2022-12-24T13:40:02.798Z,10.73
2022-12-24T13:43:12.243Z,10.72
2022-12-24T13:45:38.729Z,10.66
2022-12-24T13:48:11.311Z,10.68
2022-12-24T13:50:45.297Z,10.67
2022-12-24T13:53:28.229Z,10.67
2022-12-24T13:55:56.223Z,10.67
2022-12-24T13:58:24.778Z,10.62
2022-12-24T14:01:04.951Z,10.57
2022-12-24T14:03:35.914Z,10.56
2022-12-24T14:06:06.730Z,10.58
2022-12-24T14:08:39.440Z,10.63
2022-12-24T14:11:18.103Z,10.64
2022-12-24T14:13:44.433Z,10.63
2022-12-24T14:16:28.475Z,10.62
2022-12-24T14:19:12.158Z,10.56
2022-12-24T14:21:44.024Z,10.55
2022-12-24T14:24:20.578Z,10.58
2022-12-24T14:26:51.314Z,10.50
2022-12-24T14:29:41.476Z,10.48
2022-12-24T14:32:15.359Z,10.49
2022-12-24T14:34:42.394Z,10.37
2022-12-24T14:37:11.559Z,10.38
2022-12-24T14:39:43.948Z,10.37
2022-12-24T14:42:31.877Z,10.29
2022-12-24T14:45:17.187Z,10.28
2022-12-24T14:48:06.359Z,10.29
2022-12-24T14:50:43.571Z,10.20
2022-12-24T14:53:31.452Z,10.21
2022-12-24T14:55:57.909Z,10.17
2022-12-24T14:58:27.727Z,10.15
2022-12-24T15:00:57.860Z,10.04
2022-12-24T15:03:27.519Z,10.02
2022-12-24T15:06:02.575Z,10.08
2022-12-24T15:08:43.848Z,9.96
2022-12-24T15:11:16.636Z,9.94
2022-12-24T15:13:46.845Z,9.87
2022-12-24T15:16:19.194Z,9.77
2022-12-24T15:18:58.606Z,9.85
2022-12-24T15:21:37.674Z,9.89
2022-12-24T15:24:04.522Z,9.84
2022-12-24T15:26:36.457Z,9.83
2022-12-24T15:29:16.381Z,9.74
2022-12-24T15:31:43.435Z,9.68
2022-12-24T15:34:30.007Z,9.65
2022-12-24T15:37:24.401Z,9.64
2022-12-24T15:40:02.141Z,9.73
2022-12-24T15:42:28.761Z,9.67
2022-12-24T15:45:01.610Z,9.61
2022-12-24T15:47:45.593Z,9.63
2022-12-24T15:50:19.315Z,9.52
2022-12-24T15:52:47.143Z,9.44
2022-12-24T15:55:38.376Z,9.50
2022-12-24T15:58:23.518Z,9.43
2022-12-24T16:01:04.728Z,9.47
2022-12-24T16:03:32.414Z,9.37
2022-12-24T16:06:04.710Z,9.27
2022-12-24T16:08:41.510Z,9.33
2022-12-24T16:11:23.554Z,9.29
2022-12-24T16:14:14.062Z,9.31
2022-12-24T16:16:46.239Z,9.20
2022-12-24T16:19:24.972Z,9.22
2022-12-24T16:21:57.626Z,9.12
2022-12-24T16:24:27.281Z,9.12
2022-12-24T16:26:54.840Z,9.04
2022-12-24T16:29:22.346Z,9.01
2022-12-24T16:31:53.224Z,8.94
2022-12-24T16:34:25.405Z,8.84
2022-12-24T16:36:51.956Z,8.75
2022-12-24T16:39:38.584Z,8.67
2022-12-24T16:42:23.437Z,8.59
2022-12-24T16:44:52.993Z,8.66
2022-12-24T16:47:32.387Z,8.84
2022-12-24T16:50:02.990Z,8.91
2022-12-24T16:52:33.448Z,8.93
2022-12-24T16:55:01.007Z,8.88
2022-12-24T16:57:27.953Z,8.81
2022-12-24T16:59:54.587Z,8.69
2022-12-24T17:02:23.477Z,8.62
2022-12-24T17:04:50.244Z,8.58
2022-12-24T17:07:18.955Z,8.52
2022-12-24T17:09:45.356Z,8.50
2022-12-24T17:12:11.932Z,8.47
2022-12-24T17:14:39.411Z,8.38
2022-12-24T17:17:06.106Z,8.35
2022-12-24T17:19:32.504Z,8.30
2022-12-24T17:21:58.904Z,8.29
2022-12-24T17:24:25.254Z,8.24
2022-12-24T17:26:51.660Z,8.24
2022-12-24T17:29:18.026Z,8.20
2022-12-24T17:31:44.535Z,8.18
2022-12-24T17:34:10.970Z,8.13
2022-12-24T17:36:37.342Z,8.08
2022-12-24T17:39:03.840Z,8.08
2022-12-24T17:41:30.261Z,8.07
2022-12-24T17:43:56.628Z,8.05
2022-12-24T17:46:23.648Z,8.05
2022-12-24T17:48:51.244Z,8.02
2022-12-24T17:51:20.783Z,8.02
2022-12-24T17:53:47.666Z,8.03
2022-12-24T17:56:15.422Z,8.03
2022-12-24T17:58:43.517Z,7.95
2022-12-24T18:01:12.746Z,7.86
2022-12-24T18:03:39.481Z,7.70
2022-12-24T18:06:08.177Z,7.88
2022-12-24T18:08:35.229Z,7.86
2022-12-24T18:11:11.832Z,7.84
2022-12-24T18:13:39.000Z,7.85
2022-12-24T18:16:22.223Z,7.82
2022-12-24T18:18:49.408Z,7.82
2022-12-24T18:21:17.532Z,7.78
2022-12-24T18:23:46.467Z,7.74
2022-12-24T18:26:15.288Z,7.64
2022-12-24T18:28:42.755Z,7.56
2022-12-24T18:31:13.364Z,7.50
2022-12-24T18:33:40.782Z,7.54
2022-12-24T18:36:07.845Z,7.58
2022-12-24T18:38:35.246Z,7.52
2022-12-24T18:41:06.416Z,7.35
2022-12-24T18:43:33.148Z,7.34
2022-12-24T18:45:59.649Z,7.31
2022-12-24T18:48:26.083Z,7.21
2022-12-24T18:50:57.513Z,7.20
2022-12-24T18:53:24.883Z,7.11
2022-12-24T18:55:51.824Z,6.97
2022-12-24T18:58:18.336Z,6.94
2022-12-24T19:00:44.876Z,6.91
2022-12-24T19:03:14.666Z,6.86
2022-12-24T19:05:42.652Z,6.82
2022-12-24T19:08:37.700Z,6.76
2022-12-24T19:10:55.721Z,6.73
2022-12-24T19:13:22.067Z,6.73
2022-12-24T19:15:48.491Z,6.71
2022-12-24T19:18:14.861Z,6.73
2022-12-24T19:20:41.283Z,6.67
2022-12-24T19:23:07.876Z,6.62
2022-12-24T19:25:35.349Z,6.63
2022-12-24T19:28:08.416Z,6.58
2022-12-24T19:30:39.337Z,6.58
2022-12-24T19:33:06.236Z,6.55
2022-12-24T19:35:32.945Z,6.52
2022-12-24T19:37:59.891Z,6.55
2022-12-24T19:40:27.447Z,6.54
2022-12-24T19:42:53.936Z,6.52
2022-12-24T19:45:22.282Z,6.56
2022-12-24T19:47:50.289Z,6.53
2022-12-24T19:50:18.190Z,6.57
2022-12-24T19:52:44.770Z,6.56
2022-12-24T19:55:11.981Z,6.48
2022-12-24T19:57:39.676Z,6.50
2022-12-24T20:00:09.136Z,6.50
2022-12-24T20:02:41.653Z,6.51
2022-12-24T20:05:08.247Z,6.60
2022-12-24T20:07:34.707Z,6.60
2022-12-24T20:10:01.145Z,6.66
2022-12-24T20:12:27.608Z,6.70
2022-12-24T20:14:57.459Z,6.72
2022-12-24T20:17:23.957Z,6.75
2022-12-24T20:19:50.627Z,6.72
2022-12-24T20:22:16.983Z,6.75
2022-12-24T20:24:43.402Z,6.77
2022-12-24T20:27:09.903Z,6.78
2022-12-24T20:29:36.373Z,6.82
2022-12-24T20:32:02.807Z,6.84
2022-12-24T20:34:29.214Z,6.86
2022-12-24T20:36:55.577Z,6.87
2022-12-24T20:39:21.973Z,6.87
2022-12-24T20:41:48.418Z,6.86
2022-12-24T20:44:14.875Z,6.81
2022-12-24T20:46:41.235Z,6.84
2022-12-24T20:49:07.610Z,6.87
2022-12-24T20:51:34.111Z,6.92
2022-12-24T20:54:01.871Z,6.90
2022-12-24T20:56:29.047Z,6.91
2022-12-24T20:58:55.436Z,6.94
2022-12-24T21:01:24.999Z,6.97
2022-12-24T21:03:53.200Z,6.95
2022-12-24T21:06:19.711Z,6.99
2022-12-24T21:08:48.917Z,6.95
2022-12-24T21:11:34.042Z,6.96
2022-12-24T21:14:01.958Z,6.98
2022-12-24T21:16:30.474Z,7.01
2022-12-24T21:18:56.948Z,7.02
2022-12-24T21:21:23.404Z,7.06
2022-12-24T21:23:49.800Z,7.07
2022-12-24T21:26:16.215Z,7.10
2022-12-24T21:28:43.762Z,7.09
2022-12-24T21:31:12.225Z,7.08
2022-12-24T21:33:38.935Z,7.08
2022-12-24T21:36:06.098Z,7.04
2022-12-24T21:38:32.717Z,7.03
2022-12-24T21:41:07.771Z,7.04
2022-12-24T21:43:35.958Z,7.00
2022-12-24T21:46:07.887Z,7.00
2022-12-24T21:48:55.891Z,7.00
2022-12-24T21:51:23.628Z,7.02
2022-12-24T21:54:08.699Z,7.06
2022-12-24T21:56:53.636Z,7.09
2022-12-24T21:59:26.191Z,7.09
2022-12-24T22:01:53.285Z,7.06
2022-12-24T22:04:19.971Z,7.06
2022-12-24T22:07:04.921Z,7.07
2022-12-24T22:09:49.660Z,7.06
2022-12-24T22:12:16.180Z,7.02
2022-12-24T22:14:42.535Z,7.07
2022-12-24T22:17:08.910Z,7.10
2022-12-24T22:19:35.329Z,7.18
2022-12-24T22:22:01.709Z,7.25
2022-12-24T22:24:28.568Z,7.32
2022-12-24T22:26:54.946Z,7.38
2022-12-24T22:29:21.350Z,7.36
2022-12-24T22:31:47.794Z,7.23
2022-12-24T22:34:14.516Z,7.21
2022-12-24T22:36:41.128Z,7.17
2022-12-24T22:39:08.493Z,7.19
2022-12-24T22:41:35.019Z,7.21
2022-12-24T22:44:01.645Z,7.20
2022-12-24T22:46:28.108Z,7.21
2022-12-24T22:48:54.475Z,7.23
2022-12-24T22:51:22.317Z,7.27
2022-12-24T22:53:48.995Z,7.15
2022-12-24T22:56:21.103Z,7.10
2022-12-24T22:58:52.748Z,7.13
2022-12-24T23:01:19.482Z,7.12
2022-12-24T23:03:45.973Z,7.13
2022-12-24T23:06:12.383Z,7.07
2022-12-24T23:08:38.738Z,7.05
2022-12-24T23:11:11.632Z,6.98
2022-12-24T23:13:58.608Z,7.00
2022-12-24T23:16:27.081Z,6.90
2022-12-24T23:18:53.832Z,6.80
2022-12-24T23:21:20.364Z,6.80
2022-12-24T23:23:46.897Z,6.81
2022-12-24T23:26:16.967Z,6.77
2022-12-24T23:28:44.196Z,6.67
2022-12-24T23:31:11.641Z,6.68
2022-12-24T23:33:38.457Z,6.62
2022-12-24T23:36:05.199Z,6.64
2022-12-24T23:38:32.142Z,6.59
2022-12-24T23:41:00.471Z,6.62
2022-12-24T23:43:27.251Z,6.63
2022-12-24T23:45:54.282Z,6.57
2022-12-24T23:48:21.485Z,6.60
2022-12-24T23:50:49.264Z,6.62
2022-12-24T23:53:17.044Z,6.64
2022-12-24T23:55:43.486Z,6.60
2022-12-24T23:58:13.681Z,6.69
